createdAt,value
2022-08-10T00:01:52.684Z,19.24
2022-08-10T00:04:23.074Z,19.21
2022-08-10T00:06:53.155Z,19.17
2022-08-10T00:09:21.914Z,19.14
2022-08-10T00:11:49.984Z,19.10
2022-08-10T00:14:18.899Z,19.07
2022-08-10T00:16:47.079Z,19.00
2022-08-10T00:19:16.722Z,18.96
2022-08-10T00:21:47.184Z,18.89
2022-08-10T00:24:15.669Z,18.85
2022-08-10T00:27:47.026Z,18.85
2022-08-10T00:29:32.011Z,18.80
2022-08-10T00:32:00.018Z,18.76
2022-08-10T00:34:29.705Z,18.75
2022-08-10T00:36:57.994Z,18.71
2022-08-10T00:39:27.380Z,18.64
2022-08-10T00:42:06.699Z,18.57
2022-08-10T00:44:38.511Z,18.51
2022-08-10T00:47:20.733Z,18.48
2022-08-10T00:49:55.871Z,18.45
2022-08-10T00:52:25.305Z,18.47
2022-08-10T00:54:54.997Z,18.49
2022-08-10T00:57:23.381Z,18.48
2022-08-10T00:59:58.541Z,18.45
2022-08-10T01:02:30.899Z,18.43
2022-08-10T01:05:07.147Z,18.40
2022-08-10T01:08:08.427Z,18.35
2022-08-10T01:10:59.696Z,18.32
2022-08-10T01:13:48.813Z,18.29
2022-08-10T01:16:38.204Z,18.31
2022-08-10T01:19:36.615Z,18.32
2022-08-10T01:22:25.064Z,18.27
2022-08-10T01:25:09.886Z,18.24
2022-08-10T01:28:03.812Z,18.21
2022-08-10T01:30:33.651Z,18.21
2022-08-10T01:33:12.078Z,18.22
2022-08-10T01:36:03.238Z,18.19
2022-08-10T01:38:39.219Z,18.17
2022-08-10T01:41:11.230Z,18.16
2022-08-10T01:43:46.807Z,18.17
2022-08-10T01:46:17.270Z,18.12
2022-08-10T01:48:53.018Z,18.10
2022-08-10T01:51:40.366Z,18.07
2022-08-10T01:54:20.046Z,18.08
2022-08-10T01:56:52.479Z,18.08
2022-08-10T01:59:32.887Z,18.06
2022-08-10T02:02:05.531Z,18.07
2022-08-10T02:04:38.179Z,18.05
2022-08-10T02:07:09.775Z,18.08
2022-08-10T02:09:42.767Z,18.10
2022-08-10T02:12:15.972Z,18.09
2022-08-10T02:14:52.486Z,18.14
2022-08-10T02:17:58.463Z,18.09
2022-08-10T02:20:26.266Z,18.07
2022-08-10T02:23:08.650Z,18.00
2022-08-10T02:25:41.847Z,17.97
2022-08-10T02:28:27.520Z,17.95
2022-08-10T02:31:22.255Z,17.99
2022-08-10T02:33:57.762Z,17.99
2022-08-10T02:36:31.517Z,17.96
2022-08-10T02:39:04.912Z,17.91
2022-08-10T02:45:01.309Z,17.90
2022-08-10T02:45:19.723Z,17.89
2022-08-10T02:47:46.733Z,17.86
2022-08-10T02:50:22.264Z,17.88
2022-08-10T02:53:54.956Z,17.87
2022-08-10T02:56:10.090Z,17.81
2022-08-10T02:58:45.492Z,17.73
2022-08-10T03:01:18.722Z,17.68
2022-08-10T03:03:59.327Z,17.57
2022-08-10T03:06:35.192Z,17.48
2022-08-10T03:09:08.737Z,17.42
2022-08-10T03:12:35.897Z,17.39
2022-08-10T03:14:29.296Z,17.41
2022-08-10T03:16:59.451Z,17.40
2022-08-10T03:20:33.704Z,17.38
2022-08-10T03:22:17.826Z,17.34
2022-08-10T03:24:47.058Z,17.29
2022-08-10T03:27:16.925Z,17.24
2022-08-10T03:30:23.235Z,17.20
2022-08-10T03:32:34.524Z,17.19
2022-08-10T03:35:03.870Z,17.17
2022-08-10T03:37:32.205Z,17.19
2022-08-10T03:40:00.320Z,17.30
2022-08-10T03:42:30.121Z,17.36
2022-08-10T03:44:59.277Z,17.44
2022-08-10T03:47:29.607Z,17.49
2022-08-10T03:49:59.042Z,17.53
2022-08-10T03:52:47.993Z,17.59
2022-08-10T03:56:27.501Z,17.59
2022-08-10T03:58:04.863Z,17.54
2022-08-10T04:00:35.735Z,17.51
2022-08-10T04:03:07.526Z,17.50
2022-08-10T04:05:38.473Z,17.50
2022-08-10T04:08:08.029Z,17.52
2022-08-10T04:10:36.293Z,17.53
2022-08-10T04:13:04.202Z,17.51
2022-08-10T04:15:32.289Z,17.54
2022-08-10T04:18:05.758Z,17.54
2022-08-10T04:20:43.039Z,17.59
2022-08-10T04:23:24.949Z,17.60
2022-08-10T04:25:54.359Z,17.58
2022-08-10T04:28:24.441Z,17.56
2022-08-10T04:30:54.937Z,17.63
2022-08-10T04:33:25.266Z,17.63
2022-08-10T04:35:54.296Z,17.64
2022-08-10T04:38:24.971Z,17.71
2022-08-10T04:40:53.642Z,17.69
2022-08-10T04:43:22.042Z,17.67
2022-08-10T04:45:51.895Z,17.68
2022-08-10T04:48:43.530Z,17.66
2022-08-10T04:51:17.669Z,17.61
2022-08-10T04:54:04.482Z,17.63
2022-08-10T04:56:37.356Z,17.64
2022-08-10T04:59:08.381Z,17.65
2022-08-10T05:02:30.530Z,17.67
2022-08-10T05:04:35.403Z,17.66
2022-08-10T05:07:16.335Z,17.68
2022-08-10T05:10:01.735Z,17.75
2022-08-10T05:12:37.767Z,17.84
2022-08-10T05:15:11.661Z,17.90
2022-08-10T05:17:41.304Z,17.97
2022-08-10T05:20:29.290Z,18.02
2022-08-10T05:22:58.018Z,18.07
2022-08-10T05:25:26.167Z,18.10
2022-08-10T05:27:57.423Z,18.15
2022-08-10T05:30:26.810Z,18.23
2022-08-10T05:32:59.076Z,18.29
2022-08-10T05:35:51.756Z,18.36
2022-08-10T05:38:20.437Z,18.44
2022-08-10T05:40:50.350Z,18.51
2022-08-10T05:43:21.167Z,18.58
2022-08-10T05:46:19.074Z,18.67
2022-08-10T05:48:56.406Z,18.77
2022-08-10T05:51:28.218Z,18.86
2022-08-10T05:54:01.838Z,18.93
2022-08-10T05:56:53.742Z,19.00
2022-08-10T06:00:35.180Z,19.08
2022-08-10T06:02:34.132Z,19.16
2022-08-10T06:05:08.123Z,19.23
2022-08-10T06:07:41.277Z,19.32
2022-08-10T06:10:13.421Z,19.45
2022-08-10T06:12:55.178Z,19.58
2022-08-10T06:15:50.709Z,19.72
2022-08-10T06:18:15.538Z,19.85
2022-08-10T06:20:43.978Z,19.96
2022-08-10T06:23:13.029Z,20.04
2022-08-10T06:26:09.589Z,20.12
2022-08-10T06:28:33.184Z,20.21
2022-08-10T06:31:03.090Z,20.29
2022-08-10T06:33:34.863Z,20.37
2022-08-10T06:36:04.282Z,20.49
2022-08-10T06:38:34.642Z,20.58
2022-08-10T06:41:08.064Z,20.65
2022-08-10T06:43:40.337Z,20.68
2022-08-10T06:46:12.697Z,20.74
2022-08-10T06:48:49.586Z,20.80
2022-08-10T06:51:23.834Z,20.88
2022-08-10T06:53:56.455Z,20.97
2022-08-10T06:56:37.889Z,21.04
2022-08-10T06:59:22.851Z,21.10
2022-08-10T07:01:56.740Z,21.13
2022-08-10T07:04:32.291Z,21.15
2022-08-10T07:07:04.597Z,21.15
2022-08-10T07:09:36.287Z,21.15
2022-08-10T07:12:09.043Z,21.14
2022-08-10T07:14:40.747Z,21.10
2022-08-10T07:17:16.483Z,21.10
2022-08-10T07:19:52.415Z,21.10
2022-08-10T07:23:22.846Z,21.14
2022-08-10T07:25:17.144Z,21.20
2022-08-10T07:28:00.586Z,21.28
2022-08-10T07:30:32.953Z,21.38
2022-08-10T07:33:02.668Z,21.46
2022-08-10T07:35:42.144Z,21.53
2022-08-10T07:38:29.078Z,21.61
2022-08-10T07:41:00.361Z,21.65
2022-08-10T07:43:35.554Z,21.71
2022-08-10T07:46:05.932Z,21.72
2022-08-10T07:48:45.886Z,21.78
2022-08-10T07:51:38.769Z,21.90
2022-08-10T07:54:16.002Z,22.04
2022-08-10T07:56:50.299Z,22.15
2022-08-10T07:59:23.520Z,22.24
2022-08-10T08:01:55.559Z,22.32
2022-08-10T08:04:26.215Z,22.44
2022-08-10T08:06:55.865Z,22.57
2022-08-10T08:09:24.623Z,22.73
2022-08-10T08:11:54.583Z,22.85
2022-08-10T08:14:24.208Z,22.95
2022-08-10T08:16:55.272Z,23.03
2022-08-10T08:19:27.109Z,23.12
2022-08-10T08:24:06.699Z,23.14
2022-08-10T08:25:14.685Z,23.10
2022-08-10T08:27:47.906Z,23.11
2022-08-10T08:30:19.099Z,23.13
2022-08-10T08:32:57.013Z,23.23
2022-08-10T08:35:26.593Z,23.23
2022-08-10T08:38:30.167Z,23.23
2022-08-10T08:40:54.431Z,23.28
2022-08-10T08:43:38.587Z,23.34
2022-08-10T08:46:18.472Z,23.34
2022-08-10T08:49:41.411Z,23.41
2022-08-10T08:52:27.262Z,23.43
2022-08-10T08:55:03.330Z,23.49
2022-08-10T08:57:50.662Z,23.55
2022-08-10T09:00:28.795Z,23.60
2022-08-10T09:03:28.122Z,23.66
2022-08-10T09:06:44.029Z,23.78
2022-08-10T09:09:48.624Z,23.88
2022-08-10T09:12:35.695Z,23.97
2022-08-10T09:15:40.249Z,24.08
2022-08-10T09:18:44.984Z,24.18
2022-08-10T09:22:13.085Z,24.27
2022-08-10T09:24:59.602Z,24.30
2022-08-10T09:27:49.631Z,24.28
2022-08-10T09:30:38.176Z,24.30
2022-08-10T09:36:24.753Z,24.31
2022-08-10T09:36:29.929Z,24.35
2022-08-10T09:39:08.394Z,24.33
2022-08-10T09:41:44.300Z,24.38
2022-08-10T09:44:58.407Z,24.41
2022-08-10T09:47:58.626Z,24.34
2022-08-10T09:54:38.302Z,24.29
2022-08-10T09:57:44.048Z,24.31
2022-08-10T10:00:23.517Z,24.32
2022-08-10T10:03:04.322Z,24.30
2022-08-10T10:05:38.772Z,24.31
2022-08-10T10:08:13.609Z,24.30
2022-08-10T10:11:08.932Z,24.33
2022-08-10T10:14:03.335Z,24.38
2022-08-10T10:16:56.196Z,24.44
2022-08-10T10:19:40.911Z,24.47
2022-08-10T10:22:26.252Z,24.51
2022-08-10T10:25:20.675Z,24.58
2022-08-10T10:28:15.267Z,24.74
2022-08-10T10:30:56.973Z,24.91
2022-08-10T10:33:37.134Z,25.04
2022-08-10T10:36:07.623Z,25.09
2022-08-10T10:38:39.181Z,25.14
2022-08-10T10:41:19.027Z,25.18
2022-08-10T10:44:05.179Z,25.19
2022-08-10T10:47:09.299Z,25.31
2022-08-10T10:50:13.202Z,25.46
2022-08-10T10:52:46.503Z,25.58
2022-08-10T10:56:13.603Z,25.60
2022-08-10T10:58:34.080Z,25.62
2022-08-10T11:01:21.988Z,25.75
2022-08-10T11:04:11.267Z,25.79
2022-08-10T11:06:50.853Z,25.74
2022-08-10T11:09:59.997Z,25.69
2022-08-10T11:12:42.752Z,25.68
2022-08-10T11:15:36.441Z,25.55
2022-08-10T11:18:27.866Z,25.52
2022-08-10T11:21:03.449Z,25.61
2022-08-10T11:24:46.866Z,25.68
2022-08-10T11:26:53.749Z,25.77
2022-08-10T11:30:06.249Z,25.85
2022-08-10T11:33:30.777Z,25.91
2022-08-10T11:36:23.706Z,26.06
2022-08-10T11:39:13.855Z,26.13
2022-08-10T11:42:11.655Z,26.03
2022-08-10T11:44:42.485Z,25.89
2022-08-10T11:47:17.357Z,25.85
2022-08-10T11:49:59.861Z,25.96
2022-08-10T11:52:30.818Z,26.07
2022-08-10T11:55:02.978Z,26.11
2022-08-10T11:57:53.145Z,26.10
2022-08-10T12:00:21.551Z,26.08
2022-08-10T12:02:55.387Z,26.15
2022-08-10T12:05:52.734Z,26.34
2022-08-10T12:10:05.837Z,26.44
2022-08-10T12:11:18.134Z,26.35
2022-08-10T12:14:19.854Z,26.22
2022-08-10T12:16:55.434Z,26.08
2022-08-10T12:19:29.728Z,26.04
2022-08-10T12:23:07.906Z,26.24
2022-08-10T12:25:57.965Z,26.36
2022-08-10T12:28:50.545Z,26.39
2022-08-10T12:32:01.335Z,26.44
2022-08-10T12:34:41.971Z,26.43
2022-08-10T12:37:35.653Z,26.46
2022-08-10T12:40:33.905Z,26.56
2022-08-10T12:43:03.901Z,26.66
2022-08-10T12:45:56.129Z,26.74
2022-08-10T12:48:31.728Z,26.84
2022-08-10T12:51:09.418Z,26.89
2022-08-10T12:54:03.225Z,26.75
2022-08-10T12:56:38.081Z,26.56
2022-08-10T12:59:12.769Z,26.50
2022-08-10T13:02:09.653Z,26.52
2022-08-10T13:04:42.846Z,26.64
2022-08-10T13:08:25.188Z,26.75
2022-08-10T13:10:14.852Z,26.87
2022-08-10T13:12:54.344Z,26.95
2022-08-10T13:15:49.795Z,27.02
2022-08-10T13:18:19.678Z,26.89
2022-08-10T13:20:56.151Z,26.74
2022-08-10T13:23:27.348Z,26.67
2022-08-10T13:25:59.082Z,26.66
2022-08-10T13:28:45.470Z,26.69
2022-08-10T13:32:03.944Z,26.70
2022-08-10T13:34:43.542Z,26.76
2022-08-10T13:37:17.152Z,26.77
2022-08-10T13:39:59.252Z,26.84
2022-08-10T13:42:35.897Z,26.94
2022-08-10T13:45:33.944Z,26.95
2022-08-10T13:48:17.013Z,26.88
2022-08-10T13:50:46.974Z,26.78
2022-08-10T13:53:18.151Z,26.77
2022-08-10T13:55:55.033Z,26.84
2022-08-10T13:58:45.727Z,26.93
2022-08-10T14:01:17.815Z,27.01
2022-08-10T14:03:47.824Z,27.09
2022-08-10T14:06:17.457Z,27.16
2022-08-10T14:09:02.388Z,27.19
2022-08-10T14:11:31.250Z,27.16
2022-08-10T14:14:05.277Z,27.15
2022-08-10T14:16:42.306Z,27.16
2022-08-10T14:19:22.966Z,27.15
2022-08-10T14:21:54.126Z,27.15
2022-08-10T14:24:34.674Z,27.16
2022-08-10T14:27:12.163Z,27.19
2022-08-10T14:29:48.609Z,27.25
2022-08-10T14:32:20.809Z,27.31
2022-08-10T14:36:16.374Z,27.28
2022-08-10T14:37:57.650Z,27.22
2022-08-10T14:40:33.839Z,27.19
2022-08-10T14:43:06.868Z,27.13
2022-08-10T14:45:37.178Z,27.11
2022-08-10T14:48:17.147Z,27.08
2022-08-10T14:50:55.518Z,27.06
2022-08-10T14:53:28.392Z,27.05
2022-08-10T14:56:17.641Z,27.07
2022-08-10T14:59:05.411Z,27.09
2022-08-10T15:02:00.182Z,27.10
2022-08-10T15:04:33.135Z,27.10
2022-08-10T15:07:12.316Z,27.10
2022-08-10T15:10:00.551Z,27.13
2022-08-10T15:12:40.328Z,27.15
2022-08-10T15:15:18.024Z,27.15
2022-08-10T15:17:59.821Z,27.17
2022-08-10T15:20:33.437Z,27.18
2022-08-10T15:23:08.419Z,27.19
2022-08-10T15:26:03.008Z,27.12
2022-08-10T15:29:08.449Z,26.99
2022-08-10T15:31:56.679Z,26.87
2022-08-10T15:34:45.125Z,26.81
2022-08-10T15:37:39.864Z,26.77
2022-08-10T15:40:26.128Z,26.80
2022-08-10T15:43:24.396Z,26.82
2022-08-10T15:46:04.354Z,26.82
2022-08-10T15:48:41.129Z,26.84
2022-08-10T15:51:53.629Z,26.83
2022-08-10T15:54:33.814Z,26.84
2022-08-10T15:57:05.781Z,26.85
2022-08-10T16:00:00.366Z,26.79
2022-08-10T16:02:34.115Z,26.71
2022-08-10T16:05:14.151Z,26.64
2022-08-10T16:07:56.573Z,26.61
2022-08-10T16:10:38.035Z,26.58
2022-08-10T16:13:59.941Z,26.57
2022-08-10T16:16:05.578Z,26.55
2022-08-10T16:18:38.942Z,26.51
2022-08-10T16:21:17.917Z,26.49
2022-08-10T16:24:15.036Z,26.44
2022-08-10T16:26:47.421Z,26.37
2022-08-10T16:29:24.082Z,26.34
2022-08-10T16:31:59.806Z,26.29
2022-08-10T16:34:30.778Z,26.24
2022-08-10T16:37:04.185Z,26.20
2022-08-10T16:39:58.506Z,26.17
2022-08-10T16:42:28.633Z,26.15
2022-08-10T16:45:02.980Z,26.09
2022-08-10T16:47:36.059Z,26.03
2022-08-10T16:50:09.605Z,25.97
2022-08-10T16:52:38.880Z,25.84
2022-08-10T16:55:47.413Z,25.75
2022-08-10T16:58:15.545Z,25.68
2022-08-10T17:00:46.507Z,25.61
2022-08-10T17:03:22.710Z,25.52
2022-08-10T17:06:11.918Z,25.42
2022-08-10T17:08:47.985Z,25.39
2022-08-10T17:11:18.822Z,25.34
2022-08-10T17:13:47.981Z,25.28
2022-08-10T17:16:17.564Z,25.21
2022-08-10T17:18:48.335Z,25.15
2022-08-10T17:21:28.235Z,25.10
2022-08-10T17:24:00.555Z,25.05
2022-08-10T17:26:35.748Z,24.99
2022-08-10T17:29:53.676Z,24.94
2022-08-10T17:32:14.343Z,24.87
2022-08-10T17:34:46.828Z,24.80
2022-08-10T17:37:20.548Z,24.73
2022-08-10T17:39:54.940Z,24.66
2022-08-10T17:42:25.343Z,24.60
2022-08-10T17:44:55.644Z,24.53
2022-08-10T17:47:27.213Z,24.46
2022-08-10T17:50:01.021Z,24.39
2022-08-10T17:52:32.211Z,24.32
2022-08-10T17:55:05.268Z,24.25
2022-08-10T17:57:40.399Z,24.18
2022-08-10T18:00:14.903Z,24.11
2022-08-10T18:02:48.890Z,24.06
2022-08-10T18:05:17.787Z,24.01
2022-08-10T18:07:50.618Z,23.98
2022-08-10T18:10:21.473Z,23.94
2022-08-10T18:12:55.021Z,23.87
2022-08-10T18:15:27.766Z,23.81
2022-08-10T18:18:00.036Z,23.76
2022-08-10T18:20:35.670Z,23.71
2022-08-10T18:23:05.143Z,23.65
2022-08-10T18:25:36.598Z,23.59
2022-08-10T18:28:08.515Z,23.54
2022-08-10T18:30:50.955Z,23.48
2022-08-10T18:33:26.781Z,23.44
2022-08-10T18:35:57.213Z,23.40
2022-08-10T18:38:26.921Z,23.36
2022-08-10T18:41:01.347Z,23.31
2022-08-10T18:44:05.885Z,23.28
2022-08-10T18:46:27.797Z,23.22
2022-08-10T18:49:05.442Z,23.18
2022-08-10T18:51:46.688Z,23.16
2022-08-10T18:54:39.810Z,23.12
2022-08-10T18:57:43.546Z,23.09
2022-08-10T19:00:22.289Z,23.06
2022-08-10T19:03:17.924Z,23.05
2022-08-10T19:05:50.755Z,23.03
2022-08-10T19:08:37.259Z,23.00
2022-08-10T19:11:39.646Z,22.99
2022-08-10T19:14:19.354Z,22.97
2022-08-10T19:17:00.733Z,22.96
2022-08-10T19:20:06.605Z,22.94
2022-08-10T19:22:44.338Z,22.94
2022-08-10T19:26:37.922Z,22.91
2022-08-10T19:29:09.373Z,22.88
2022-08-10T19:32:01.919Z,22.85
2022-08-10T19:35:08.870Z,22.80
2022-08-10T19:38:16.910Z,22.74
2022-08-10T19:40:53.963Z,22.70
2022-08-10T19:44:01.249Z,22.64
2022-08-10T19:46:36.004Z,22.47
2022-08-10T19:49:19.969Z,22.30
2022-08-10T19:52:23.261Z,22.16
2022-08-10T19:55:25.119Z,22.07
2022-08-10T19:58:22.278Z,21.93
2022-08-10T20:00:56.881Z,21.84
2022-08-10T20:03:44.040Z,21.77
2022-08-10T20:06:19.967Z,21.69
2022-08-10T20:08:59.102Z,21.59
2022-08-10T20:11:49.579Z,21.47
2022-08-10T20:14:43.840Z,21.41
2022-08-10T20:17:52.095Z,21.36
2022-08-10T20:20:31.842Z,21.32
2022-08-10T20:23:09.491Z,21.28
2022-08-10T20:25:40.237Z,21.23
2022-08-10T20:28:34.270Z,21.17
2022-08-10T20:31:21.449Z,21.15
2022-08-10T20:34:01.246Z,21.13
2022-08-10T20:36:38.074Z,21.12
2022-08-10T20:39:39.151Z,21.12
2022-08-10T20:42:33.316Z,21.09
2022-08-10T20:45:21.805Z,21.09
2022-08-10T20:48:13.045Z,21.06
2022-08-10T20:50:54.598Z,21.02
2022-08-10T20:53:29.099Z,20.98
2022-08-10T20:56:15.969Z,20.94
2022-08-10T20:59:09.137Z,20.89
2022-08-10T21:02:07.010Z,20.85
2022-08-10T21:04:47.714Z,20.82
2022-08-10T21:08:01.149Z,20.78
2022-08-10T21:10:56.192Z,20.71
2022-08-10T21:13:58.122Z,20.65
2022-08-10T21:16:49.598Z,20.58
2022-08-10T21:19:55.658Z,20.52
2022-08-10T21:22:34.945Z,20.46
2022-08-10T21:25:15.392Z,20.39
2022-08-10T21:28:05.237Z,20.35
2022-08-10T21:30:51.171Z,20.28
2022-08-10T21:33:34.741Z,20.24
2022-08-10T21:36:27.324Z,20.19
2022-08-10T21:39:20.139Z,20.17
2022-08-10T21:42:37.014Z,20.13
2022-08-10T21:45:59.102Z,20.09
2022-08-10T21:49:05.050Z,20.04
2022-08-10T21:52:04.060Z,19.97
2022-08-10T21:55:02.531Z,19.98
2022-08-10T21:58:07.262Z,19.94
2022-08-10T22:01:02.959Z,19.91
2022-08-10T22:03:50.416Z,19.91
2022-08-10T22:06:52.746Z,19.90
2022-08-10T22:09:47.279Z,19.89
2022-08-10T22:12:38.461Z,19.91
2022-08-10T22:16:03.335Z,19.92
2022-08-10T22:18:53.803Z,19.90
2022-08-10T22:22:27.284Z,19.90
2022-08-10T22:25:46.146Z,19.85
2022-08-10T22:28:39.086Z,19.82
2022-08-10T22:34:29.510Z,19.80
2022-08-10T22:37:42.435Z,19.74
2022-08-10T22:40:34.323Z,19.67
2022-08-10T22:43:35.364Z,19.66
2022-08-10T22:46:33.120Z,19.62
2022-08-10T22:49:01.426Z,19.58
2022-08-10T22:51:51.130Z,19.59
2022-08-10T22:54:53.614Z,19.56
2022-08-10T22:57:40.565Z,19.53
2022-08-10T23:00:17.357Z,19.51
2022-08-10T23:03:11.820Z,19.49
2022-08-10T23:05:54.378Z,19.46
2022-08-10T23:08:30.187Z,19.39
2022-08-10T23:11:10.843Z,19.34
2022-08-10T23:13:43.645Z,19.30
2022-08-10T23:16:39.705Z,19.26
2022-08-10T23:19:20.799Z,19.20
2022-08-10T23:22:04.032Z,19.11
2022-08-10T23:24:38.893Z,19.04
2022-08-10T23:27:13.007Z,18.98
2022-08-10T23:30:10.589Z,18.92
2022-08-10T23:32:50.075Z,18.88
2022-08-10T23:36:30.534Z,18.85
2022-08-10T23:38:12.509Z,18.80
2022-08-10T23:40:46.309Z,18.76
2022-08-10T23:43:20.883Z,18.72
2022-08-10T23:45:54.520Z,18.70
2022-08-10T23:48:29.856Z,18.71
2022-08-10T23:51:01.612Z,18.67
2022-08-10T23:53:49.020Z,18.65
2022-08-10T23:56:20.353Z,18.59
2022-08-10T23:58:55.886Z,18.51
